sensor_id;sensor_type;location;lat;lon;timestamp;pressure;altitude;pressure_sealevel;temperature;humidity
71059;BME280;70265;47.576;19.270;2024-01-11T00:00:10;100093.47;;;-6.44;95.40
71059;BME280;70265;47.576;19.270;2024-01-11T00:01:12;100086.63;;;-6.41;95.22
71059;BME280;70265;47.576;19.270;2024-01-11T00:02:16;100091.69;;;-6.39;95.69
71059;BME280;70265;47.576;19.270;2024-01-11T00:03:18;100089.16;;;-6.39;95.67
71059;BME280;70265;47.576;19.270;2024-01-11T00:04:19;100096.81;;;-6.36;95.30
71059;BME280;70265;47.576;19.270;2024-01-11T00:05:25;100083.22;;;-6.41;94.55
71059;BME280;70265;47.576;19.270;2024-01-11T00:06:26;100086.59;;;-6.39;94.78
71059;BME280;70265;47.576;19.270;2024-01-11T00:07:30;100086.63;;;-6.42;94.47
71059;BME280;70265;47.576;19.270;2024-01-11T00:08:30;100085.81;;;-6.46;94.50
71059;BME280;70265;47.576;19.270;2024-01-11T00:09:38;100090.16;;;-6.52;94.75
71059;BME280;70265;47.576;19.270;2024-01-11T00:10:39;100090.25;;;-6.61;94.88
71059;BME280;70265;47.576;19.270;2024-01-11T00:11:42;100090.41;;;-6.74;94.78
71059;BME280;70265;47.576;19.270;2024-01-11T00:12:43;100092.28;;;-6.91;95.50
71059;BME280;70265;47.576;19.270;2024-01-11T00:13:44;100097.25;;;-6.79;95.16
71059;BME280;70265;47.576;19.270;2024-01-11T00:14:47;100091.19;;;-6.70;94.90
71059;BME280;70265;47.576;19.270;2024-01-11T00:15:48;100092.03;;;-6.70;95.10
71059;BME280;70265;47.576;19.270;2024-01-11T00:16:52;100089.50;;;-6.68;94.93
71059;BME280;70265;47.576;19.270;2024-01-11T00:17:53;100090.25;;;-6.63;94.64
71059;BME280;70265;47.576;19.270;2024-01-11T00:18:56;100088.56;;;-6.62;94.69
71059;BME280;70265;47.576;19.270;2024-01-11T00:19:57;100090.25;;;-6.60;94.34
71059;BME280;70265;47.576;19.270;2024-01-11T00:21:03;100091.06;;;-6.58;94.38
71059;BME280;70265;47.576;19.270;2024-01-11T00:22:04;100094.47;;;-6.57;93.94
71059;BME280;70265;47.576;19.270;2024-01-11T00:23:07;100091.94;;;-6.57;93.67
71059;BME280;70265;47.576;19.270;2024-01-11T00:24:08;100091.09;;;-6.59;93.78
71059;BME280;70265;47.576;19.270;2024-01-11T00:25:12;100088.53;;;-6.59;93.99
71059;BME280;70265;47.576;19.270;2024-01-11T00:26:13;100086.81;;;-6.59;94.24
71059;BME280;70265;47.576;19.270;2024-01-11T00:27:17;100088.56;;;-6.61;94.14
71059;BME280;70265;47.576;19.270;2024-01-11T00:28:18;100087.75;;;-6.64;93.65
71059;BME280;70265;47.576;19.270;2024-01-11T00:29:21;100086.09;;;-6.70;92.25
71059;BME280;70265;47.576;19.270;2024-01-11T00:30:22;100089.50;;;-6.68;91.98
71059;BME280;70265;47.576;19.270;2024-01-11T00:31:23;100081.81;;;-6.66;92.00
71059;BME280;70265;47.576;19.270;2024-01-11T00:32:27;100082.69;;;-6.67;91.87
71059;BME280;70265;47.576;19.270;2024-01-11T00:33:28;100082.69;;;-6.69;92.23
71059;BME280;70265;47.576;19.270;2024-01-11T00:34:32;100085.22;;;-6.69;92.81
71059;BME280;70265;47.576;19.270;2024-01-11T00:35:33;100081.03;;;-6.73;92.89
71059;BME280;70265;47.576;19.270;2024-01-11T00:36:36;100077.66;;;-6.77;93.62
71059;BME280;70265;47.576;19.270;2024-01-11T00:37:40;100072.59;;;-6.78;93.73
71059;BME280;70265;47.576;19.270;2024-01-11T00:38:41;100080.28;;;-6.83;93.70
71059;BME280;70265;47.576;19.270;2024-01-11T00:39:45;100070.06;;;-6.83;93.97
71059;BME280;70265;47.576;19.270;2024-01-11T00:40:46;100074.34;;;-6.85;93.33
71059;BME280;70265;47.576;19.270;2024-01-11T00:41:49;100074.38;;;-6.86;93.39
71059;BME280;70265;47.576;19.270;2024-01-11T00:42:51;100073.50;;;-6.87;93.45
71059;BME280;70265;47.576;19.270;2024-01-11T00:43:52;100073.50;;;-6.87;93.45
71059;BME280;70265;47.576;19.270;2024-01-11T00:44:55;100066.75;;;-6.88;94.49
71059;BME280;70265;47.576;19.270;2024-01-11T00:45:56;100064.13;;;-6.82;94.36
71059;BME280;70265;47.576;19.270;2024-01-11T00:47:00;100060.75;;;-6.85;94.66
71059;BME280;70265;47.576;19.270;2024-01-11T00:48:01;100064.13;;;-6.82;94.60
71059;BME280;70265;47.576;19.270;2024-01-11T00:49:04;100071.81;;;-6.85;95.07
71059;BME280;70265;47.576;19.270;2024-01-11T00:50:08;100071.88;;;-6.91;95.41
71059;BME280;70265;47.576;19.270;2024-01-11T00:51:12;100067.59;;;-6.87;95.18
71059;BME280;70265;47.576;19.270;2024-01-11T00:52:15;100061.69;;;-6.94;95.56
71059;BME280;70265;47.576;19.270;2024-01-11T00:53:16;100059.94;;;-6.90;95.33
71059;BME280;70265;47.576;19.270;2024-01-11T00:54:20;100063.38;;;-6.93;95.10
71059;BME280;70265;47.576;19.270;2024-01-11T00:55:21;100060.81;;;-6.91;95.10
71059;BME280;70265;47.576;19.270;2024-01-11T00:56:25;100059.13;;;-6.91;94.91
71059;BME280;70265;47.576;19.270;2024-01-11T00:57:25;100059.09;;;-6.89;95.05
71059;BME280;70265;47.576;19.270;2024-01-11T00:58:29;100054.84;;;-6.89;95.09
71059;BME280;70265;47.576;19.270;2024-01-11T00:59:30;100053.16;;;-6.88;95.24
71059;BME280;70265;47.576;19.270;2024-01-11T01:00:33;100051.41;;;-6.85;95.32
71059;BME280;70265;47.576;19.270;2024-01-11T01:01:34;100055.66;;;-6.85;94.99
71059;BME280;70265;47.576;19.270;2024-01-11T01:02:38;100042.94;;;-6.90;95.42
71059;BME280;70265;47.576;19.270;2024-01-11T01:03:39;100048.03;;;-6.88;95.36
71059;BME280;70265;47.576;19.270;2024-01-11T01:04:43;100043.78;;;-6.89;95.72
71059;BME280;70265;47.576;19.270;2024-01-11T01:05:43;100054.13;;;-7.03;96.01
71059;BME280;70265;47.576;19.270;2024-01-11T01:06:45;100048.25;;;-7.08;95.67
71059;BME280;70265;47.576;19.270;2024-01-11T01:07:51;100056.81;;;-7.15;95.81
71059;BME280;70265;47.576;19.270;2024-01-11T01:08:54;100054.34;;;-7.26;95.44
71059;BME280;70265;47.576;19.270;2024-01-11T01:09:57;100051.81;;;-7.27;95.25
71059;BME280;70265;47.576;19.270;2024-01-11T01:10:58;100051.91;;;-7.39;95.22
71059;BME280;70265;47.576;19.270;2024-01-11T01:12:03;100051.94;;;-7.42;95.66
71059;BME280;70265;47.576;19.270;2024-01-11T01:13:04;100051.94;;;-7.42;95.76
71059;BME280;70265;47.576;19.270;2024-01-11T01:14:07;100055.31;;;-7.40;95.71
71059;BME280;70265;47.576;19.270;2024-01-11T01:15:09;100050.19;;;-7.37;96.02
71059;BME280;70265;47.576;19.270;2024-01-11T01:16:12;100052.75;;;-7.36;96.14
71059;BME280;70265;47.576;19.270;2024-01-11T01:17:13;100046.78;;;-7.33;96.13
71059;BME280;70265;47.576;19.270;2024-01-11T01:18:17;100043.38;;;-7.32;96.37
71059;BME280;70265;47.576;19.270;2024-01-11T01:19:18;100037.41;;;-7.30;96.43
71059;BME280;70265;47.576;19.270;2024-01-11T01:20:19;100035.66;;;-7.26;97.04
71059;BME280;70265;47.576;19.270;2024-01-11T01:21:22;100041.59;;;-7.24;97.55
71059;BME280;70265;47.576;19.270;2024-01-11T01:22:25;100034.78;;;-7.22;97.61
71059;BME280;70265;47.576;19.270;2024-01-11T01:23:31;100034.72;;;-7.16;97.68
71059;BME280;70265;47.576;19.270;2024-01-11T01:24:32;100036.34;;;-7.09;97.19
71059;BME280;70265;47.576;19.270;2024-01-11T01:25:36;100029.53;;;-7.07;97.26
71059;BME280;70265;47.576;19.270;2024-01-11T01:26:37;100036.34;;;-7.09;97.49
71059;BME280;70265;47.576;19.270;2024-01-11T01:27:40;100033.91;;;-7.21;97.60
71059;BME280;70265;47.576;19.270;2024-01-11T01:28:41;100031.41;;;-7.27;97.81
71059;BME280;70265;47.576;19.270;2024-01-11T01:29:45;100021.19;;;-7.24;97.56
71059;BME280;70265;47.576;19.270;2024-01-11T01:30:46;100029.69;;;-7.22;97.34
71059;BME280;70265;47.576;19.270;2024-01-11T01:31:51;100025.44;;;-7.23;97.06
71059;BME280;70265;47.576;19.270;2024-01-11T01:32:52;100028.00;;;-7.23;96.91
71059;BME280;70265;47.576;19.270;2024-01-11T01:33:55;100028.81;;;-7.21;96.85
71059;BME280;70265;47.576;19.270;2024-01-11T01:34:56;100022.84;;;-7.18;96.70
71059;BME280;70265;47.576;19.270;2024-01-11T01:35:57;100027.13;;;-7.22;96.49
71059;BME280;70265;47.576;19.270;2024-01-11T01:37:00;100019.50;;;-7.22;96.52
71059;BME280;70265;47.576;19.270;2024-01-11T01:38:01;100015.25;;;-7.22;96.31
71059;BME280;70265;47.576;19.270;2024-01-11T01:39:05;100018.63;;;-7.21;95.97
71059;BME280;70265;47.576;19.270;2024-01-11T01:40:10;100019.47;;;-7.19;95.81
71059;BME280;70265;47.576;19.270;2024-01-11T01:41:11;100018.63;;;-7.18;95.76
71059;BME280;70265;47.576;19.270;2024-01-11T01:42:12;100013.50;;;-7.21;95.80
71059;BME280;70265;47.576;19.270;2024-01-11T01:43:16;100011.00;;;-7.24;95.84
71059;BME280;70265;47.576;19.270;2024-01-11T01:44:17;100011.81;;;-7.21;95.55
71059;BME280;70265;47.576;19.270;2024-01-11T01:45:18;100009.31;;;-7.22;95.93
71059;BME280;70265;47.576;19.270;2024-01-11T01:46:24;100005.88;;;-7.21;96.07
71059;BME280;70265;47.576;19.270;2024-01-11T01:47:27;100010.19;;;-7.25;96.13
71059;BME280;70265;47.576;19.270;2024-01-11T01:48:30;100011.06;;;-7.29;96.73
71059;BME280;70265;47.576;19.270;2024-01-11T01:49:32;100011.84;;;-7.24;96.72
71059;BME280;70265;47.576;19.270;2024-01-11T01:50:35;100011.88;;;-7.25;96.81
71059;BME280;70265;47.576;19.270;2024-01-11T01:51:36;100009.34;;;-7.25;96.82
71059;BME280;70265;47.576;19.270;2024-01-11T01:52:42;100003.34;;;-7.24;96.74
71059;BME280;70265;47.576;19.270;2024-01-11T01:53:43;100002.50;;;-7.23;96.99
71059;BME280;70265;47.576;19.270;2024-01-11T01:54:50;100003.31;;;-7.19;97.38
71059;BME280;70265;47.576;19.270;2024-01-11T01:55:52;99999.03;;;-7.16;97.56
71059;BME280;70265;47.576;19.270;2024-01-11T01:56:53;100002.41;;;-7.14;97.19
71059;BME280;70265;47.576;19.270;2024-01-11T01:57:58;100004.94;;;-7.11;97.29
71059;BME280;70265;47.576;19.270;2024-01-11T01:59:00;99999.81;;;-7.09;97.22
71059;BME280;70265;47.576;19.270;2024-01-11T02:00:06;100002.41;;;-7.11;97.43
71059;BME280;70265;47.576;19.270;2024-01-11T02:01:09;100004.09;;;-7.11;97.48
71059;BME280;70265;47.576;19.270;2024-01-11T02:02:13;100003.25;;;-7.13;97.70
71059;BME280;70265;47.576;19.270;2024-01-11T02:03:16;100004.94;;;-7.11;97.84
71059;BME280;70265;47.576;19.270;2024-01-11T02:04:19;100004.91;;;-7.09;98.07
71059;BME280;70265;47.576;19.270;2024-01-11T02:05:20;99994.69;;;-7.05;97.97
71059;BME280;70265;47.576;19.270;2024-01-11T02:06:25;99993.81;;;-7.02;97.98
71059;BME280;70265;47.576;19.270;2024-01-11T02:07:26;99993.75;;;-6.99;98.10
71059;BME280;70265;47.576;19.270;2024-01-11T02:08:30;99992.91;;;-7.00;97.76
71059;BME280;70265;47.576;19.270;2024-01-11T02:09:32;99987.81;;;-7.00;97.61
71059;BME280;70265;47.576;19.270;2024-01-11T02:10:39;99984.38;;;-6.97;97.06
71059;BME280;70265;47.576;19.270;2024-01-11T02:11:41;99985.25;;;-6.98;96.74
71059;BME280;70265;47.576;19.270;2024-01-11T02:12:45;99986.97;;;-6.99;96.89
71059;BME280;70265;47.576;19.270;2024-01-11T02:13:46;99984.38;;;-6.96;96.84
71059;BME280;70265;47.576;19.270;2024-01-11T02:14:50;99980.97;;;-6.95;96.93
71059;BME280;70265;47.576;19.270;2024-01-11T02:15:51;99979.25;;;-6.93;96.74
71059;BME280;70265;47.576;19.270;2024-01-11T02:16:54;99976.69;;;-6.93;96.84
71059;BME280;70265;47.576;19.270;2024-01-11T02:17:55;99971.66;;;-6.99;96.43
71059;BME280;70265;47.576;19.270;2024-01-11T02:18:56;99982.72;;;-6.98;96.57
71059;BME280;70265;47.576;19.270;2024-01-11T02:20:00;99971.63;;;-6.96;96.64
71059;BME280;70265;47.576;19.270;2024-01-11T02:21:07;99976.72;;;-6.96;96.34
71059;BME280;70265;47.576;19.270;2024-01-11T02:22:17;99967.38;;;-6.95;96.45
71059;BME280;70265;47.576;19.270;2024-01-11T02:23:24;99972.47;;;-6.95;96.27
71059;BME280;70265;47.576;19.270;2024-01-11T02:24:30;99970.78;;;-6.96;96.20
71059;BME280;70265;47.576;19.270;2024-01-11T02:25:31;99971.63;;;-6.96;96.29
71059;BME280;70265;47.576;19.270;2024-01-11T02:26:35;99961.44;;;-6.96;96.25
71059;BME280;70265;47.576;19.270;2024-01-11T02:27:46;99967.38;;;-6.95;96.27
71059;BME280;70265;47.576;19.270;2024-01-11T02:28:50;99960.53;;;-6.93;96.41
71059;BME280;70265;47.576;19.270;2024-01-11T02:29:51;99955.44;;;-6.93;96.28
71059;BME280;70265;47.576;19.270;2024-01-11T02:30:54;99952.13;;;-6.98;96.28
71059;BME280;70265;47.576;19.270;2024-01-11T02:31:56;99965.69;;;-6.95;96.23
71059;BME280;70265;47.576;19.270;2024-01-11T02:33:01;99955.53;;;-6.98;96.06
71059;BME280;70265;47.576;19.270;2024-01-11T02:34:02;99957.25;;;-7.01;96.46
71059;BME280;70265;47.576;19.270;2024-01-11T02:35:06;99952.19;;;-7.04;96.65
71059;BME280;70265;47.576;19.270;2024-01-11T02:36:08;99954.66;;;-7.00;96.53
71059;BME280;70265;47.576;19.270;2024-01-11T02:37:12;99944.44;;;-6.97;96.63
71059;BME280;70265;47.576;19.270;2024-01-11T02:38:13;99957.16;;;-6.94;96.67
71059;BME280;70265;47.576;19.270;2024-01-11T02:39:18;99949.53;;;-6.97;97.40
71059;BME280;70265;47.576;19.270;2024-01-11T02:40:23;99946.13;;;-6.96;97.43
71059;BME280;70265;47.576;19.270;2024-01-11T02:41:24;99947.84;;;-6.95;97.50
71059;BME280;70265;47.576;19.270;2024-01-11T02:42:28;99935.09;;;-6.96;97.45
71059;BME280;70265;47.576;19.270;2024-01-11T02:43:29;99935.88;;;-6.91;97.35
71059;BME280;70265;47.576;19.270;2024-01-11T02:44:29;99930.78;;;-6.91;97.34
71059;BME280;70265;47.576;19.270;2024-01-11T02:45:33;99929.91;;;-6.87;97.42
71059;BME280;70265;47.576;19.270;2024-01-11T02:46:34;99924.75;;;-6.86;97.81
71059;BME280;70265;47.576;19.270;2024-01-11T02:47:35;99923.91;;;-6.86;97.82
71059;BME280;70265;47.576;19.270;2024-01-11T02:48:38;99923.94;;;-6.88;98.01
71059;BME280;70265;47.576;19.270;2024-01-11T02:49:39;99925.63;;;-6.87;97.68
71059;BME280;70265;47.576;19.270;2024-01-11T02:50:42;99925.63;;;-6.87;97.09
71059;BME280;70265;47.576;19.270;2024-01-11T02:51:43;99924.81;;;-6.89;97.06
71059;BME280;70265;47.576;19.270;2024-01-11T02:52:44;99923.09;;;-6.90;97.04
71059;BME280;70265;47.576;19.270;2024-01-11T02:53:48;99918.91;;;-6.92;97.02
71059;BME280;70265;47.576;19.270;2024-01-11T02:54:49;99916.34;;;-6.91;97.03
71059;BME280;70265;47.576;19.270;2024-01-11T02:55:55;99924.88;;;-6.95;97.28
71059;BME280;70265;47.576;19.270;2024-01-11T02:56:56;99919.81;;;-6.98;97.77
71059;BME280;70265;47.576;19.270;2024-01-11T02:58:00;99918.13;;;-6.99;97.70
71059;BME280;70265;47.576;19.270;2024-01-11T02:59:01;99918.13;;;-7.00;97.72
71059;BME280;70265;47.576;19.270;2024-01-11T03:00:07;99913.13;;;-7.05;96.93
71059;BME280;70265;47.576;19.270;2024-01-11T03:01:08;99910.56;;;-7.05;97.06
71059;BME280;70265;47.576;19.270;2024-01-11T03:02:11;99916.50;;;-7.06;96.75
71059;BME280;70265;47.576;19.270;2024-01-11T03:03:12;99905.47;;;-7.06;96.59
71059;BME280;70265;47.576;19.270;2024-01-11T03:04:16;99907.94;;;-7.00;96.45
71059;BME280;70265;47.576;19.270;2024-01-11T03:05:17;99903.69;;;-7.00;96.11
71059;BME280;70265;47.576;19.270;2024-01-11T03:06:21;99907.16;;;-7.07;96.36
71059;BME280;70265;47.576;19.270;2024-01-11T03:07:22;99906.34;;;-7.09;96.10
71059;BME280;70265;47.576;19.270;2024-01-11T03:08:26;99905.50;;;-7.08;96.18
71059;BME280;70265;47.576;19.270;2024-01-11T03:09:27;99901.22;;;-7.07;96.45
71059;BME280;70265;47.576;19.270;2024-01-11T03:10:28;99902.06;;;-7.07;96.11
71059;BME280;70265;47.576;19.270;2024-01-11T03:11:34;99898.72;;;-7.10;96.17
71059;BME280;70265;47.576;19.270;2024-01-11T03:12:35;99902.09;;;-7.10;95.90
71059;BME280;70265;47.576;19.270;2024-01-11T03:13:38;99899.59;;;-7.13;95.60
71059;BME280;70265;47.576;19.270;2024-01-11T03:14:40;99893.66;;;-7.12;95.73
71059;BME280;70265;47.576;19.270;2024-01-11T03:15:43;99892.81;;;-7.14;95.65
71059;BME280;70265;47.576;19.270;2024-01-11T03:16:44;99894.53;;;-7.17;96.22
71059;BME280;70265;47.576;19.270;2024-01-11T03:17:48;99897.97;;;-7.18;96.38
71059;BME280;70265;47.576;19.270;2024-01-11T03:18:48;99892.91;;;-7.23;96.26
71059;BME280;70265;47.576;19.270;2024-01-11T03:19:52;99892.97;;;-7.26;96.01
71059;BME280;70265;47.576;19.270;2024-01-11T03:20:53;99895.50;;;-7.28;95.80
71059;BME280;70265;47.576;19.270;2024-01-11T03:21:57;99898.97;;;-7.33;95.66
71059;BME280;70265;47.576;19.270;2024-01-11T03:22:58;99893.94;;;-7.36;95.55
71059;BME280;70265;47.576;19.270;2024-01-11T03:24:01;99892.22;;;-7.37;95.50
71059;BME280;70265;47.576;19.270;2024-01-11T03:25:03;99890.56;;;-7.38;95.49
71059;BME280;70265;47.576;19.270;2024-01-11T03:26:12;99888.88;;;-7.39;95.87
71059;BME280;70265;47.576;19.270;2024-01-11T03:27:16;99884.63;;;-7.40;95.62
71059;BME280;70265;47.576;19.270;2024-01-11T03:28:20;99882.13;;;-7.43;95.94
71059;BME280;70265;47.576;19.270;2024-01-11T03:29:21;99883.81;;;-7.42;95.53
71059;BME280;70265;47.576;19.270;2024-01-11T03:30:24;99879.59;;;-7.46;95.11
71059;BME280;70265;47.576;19.270;2024-01-11T03:31:25;99884.69;;;-7.46;95.28
71059;BME280;70265;47.576;19.270;2024-01-11T03:32:28;99885.47;;;-7.41;95.40
71059;BME280;70265;47.576;19.270;2024-01-11T03:33:29;99887.06;;;-7.31;96.17
71059;BME280;70265;47.576;19.270;2024-01-11T03:34:33;99885.41;;;-7.32;96.81
71059;BME280;70265;47.576;19.270;2024-01-11T03:35:34;99882.16;;;-7.46;95.95
71059;BME280;70265;47.576;19.270;2024-01-11T03:36:39;99881.31;;;-7.47;94.93
71059;BME280;70265;47.576;19.270;2024-01-11T03:37:40;99880.44;;;-7.47;94.95
71059;BME280;70265;47.576;19.270;2024-01-11T03:38:44;99882.09;;;-7.42;95.50
71059;BME280;70265;47.576;19.270;2024-01-11T03:39:44;99874.41;;;-7.37;96.26
71059;BME280;70265;47.576;19.270;2024-01-11T03:40:48;99875.19;;;-7.34;96.25
71059;BME280;70265;47.576;19.270;2024-01-11T03:41:49;99876.06;;;-7.33;96.82
71059;BME280;70265;47.576;19.270;2024-01-11T03:42:55;99873.50;;;-7.33;97.05
71059;BME280;70265;47.576;19.270;2024-01-11T03:43:56;99868.41;;;-7.32;97.43
71059;BME280;70265;47.576;19.270;2024-01-11T03:44:59;99866.66;;;-7.31;97.47
71059;BME280;70265;47.576;19.270;2024-01-11T03:46:00;99870.88;;;-7.27;97.35
71059;BME280;70265;47.576;19.270;2024-01-11T03:47:04;99871.78;;;-7.31;97.12
71059;BME280;70265;47.576;19.270;2024-01-11T03:48:05;99868.44;;;-7.36;97.67
71059;BME280;70265;47.576;19.270;2024-01-11T03:49:09;99863.38;;;-7.39;97.92
71059;BME280;70265;47.576;19.270;2024-01-11T03:50:10;99862.50;;;-7.35;97.81
71059;BME280;70265;47.576;19.270;2024-01-11T03:51:13;99859.91;;;-7.34;97.83
71059;BME280;70265;47.576;19.270;2024-01-11T03:52:14;99859.06;;;-7.34;97.91
71059;BME280;70265;47.576;19.270;2024-01-11T03:53:18;99864.19;;;-7.37;97.98
71059;BME280;70265;47.576;19.270;2024-01-11T03:54:19;99866.78;;;-7.40;98.49
71059;BME280;70265;47.576;19.270;2024-01-11T03:55:22;99861.81;;;-7.49;98.34
71059;BME280;70265;47.576;19.270;2024-01-11T03:56:23;99862.69;;;-7.55;98.36
71059;BME280;70265;47.576;19.270;2024-01-11T03:57:27;99862.69;;;-7.53;98.32
71059;BME280;70265;47.576;19.270;2024-01-11T03:58:30;99858.44;;;-7.53;97.97
71059;BME280;70265;47.576;19.270;2024-01-11T03:59:35;99859.28;;;-7.52;97.94
71059;BME280;70265;47.576;19.270;2024-01-11T04:00:36;99848.22;;;-7.50;98.00
71059;BME280;70265;47.576;19.270;2024-01-11T04:01:39;99856.72;;;-7.51;97.78
71059;BME280;70265;47.576;19.270;2024-01-11T04:02:43;99856.75;;;-7.52;98.11
71059;BME280;70265;47.576;19.270;2024-01-11T04:03:44;99843.19;;;-7.56;98.50
71059;BME280;70265;47.576;19.270;2024-01-11T04:04:48;99858.44;;;-7.54;98.71
71059;BME280;70265;47.576;19.270;2024-01-11T04:05:49;99854.13;;;-7.46;98.65
71059;BME280;70265;47.576;19.270;2024-01-11T04:06:53;99866.81;;;-7.45;98.47
71059;BME280;70265;47.576;19.270;2024-01-11T04:07:53;99860.88;;;-7.44;98.70
71059;BME280;70265;47.576;19.270;2024-01-11T04:08:57;99863.44;;;-7.42;99.02
71059;BME280;70265;47.576;19.270;2024-01-11T04:09:58;99854.91;;;-7.41;99.22
71059;BME280;70265;47.576;19.270;2024-01-11T04:11:01;99864.19;;;-7.37;99.75
71059;BME280;70265;47.576;19.270;2024-01-11T04:12:06;99860.09;;;-7.50;99.78
71059;BME280;70265;47.576;19.270;2024-01-11T04:13:07;99866.88;;;-7.46;99.64
71059;BME280;70265;47.576;19.270;2024-01-11T04:14:14;99865.16;;;-7.47;99.56
71059;BME280;70265;47.576;19.270;2024-01-11T04:15:15;99867.72;;;-7.47;99.00
71059;BME280;70265;47.576;19.270;2024-01-11T04:16:18;99868.56;;;-7.45;99.18
71059;BME280;70265;47.576;19.270;2024-01-11T04:17:19;99866.00;;;-7.45;99.01
71059;BME280;70265;47.576;19.270;2024-01-11T04:18:23;99862.63;;;-7.46;98.71
71059;BME280;70265;47.576;19.270;2024-01-11T04:19:24;99865.09;;;-7.41;98.40
71059;BME280;70265;47.576;19.270;2024-01-11T04:20:27;99857.50;;;-7.44;98.27
71059;BME280;70265;47.576;19.270;2024-01-11T04:21:28;99856.63;;;-7.43;98.42
71059;BME280;70265;47.576;19.270;2024-01-11T04:22:32;99860.06;;;-7.46;98.52
71059;BME280;70265;47.576;19.270;2024-01-11T04:23:33;99860.88;;;-7.44;98.82
71059;BME280;70265;47.576;19.270;2024-01-11T04:24:36;99858.34;;;-7.42;98.80
71059;BME280;70265;47.576;19.270;2024-01-11T04:25:37;99849.81;;;-7.38;98.67
71059;BME280;70265;47.576;19.270;2024-01-11T04:26:40;99850.66;;;-7.39;98.59
71059;BME280;70265;47.576;19.270;2024-01-11T04:27:41;99854.00;;;-7.37;98.36
71059;BME280;70265;47.576;19.270;2024-01-11T04:28:45;99852.31;;;-7.37;98.45
71059;BME280;70265;47.576;19.270;2024-01-11T04:29:49;99856.53;;;-7.34;98.40
71059;BME280;70265;47.576;19.270;2024-01-11T04:30:53;99858.25;;;-7.36;98.04
71059;BME280;70265;47.576;19.270;2024-01-11T04:31:53;99858.28;;;-7.39;98.23
71059;BME280;70265;47.576;19.270;2024-01-11T04:32:57;99854.94;;;-7.43;98.96
71059;BME280;70265;47.576;19.270;2024-01-11T04:33:58;99854.94;;;-7.44;98.98
71059;BME280;70265;47.576;19.270;2024-01-11T04:34:59;99862.56;;;-7.43;98.89
71059;BME280;70265;47.576;19.270;2024-01-11T04:36:04;99863.47;;;-7.47;98.84
71059;BME280;70265;47.576;19.270;2024-01-11T04:37:08;99866.00;;;-7.45;98.75
71059;BME280;70265;47.576;19.270;2024-01-11T04:38:09;99858.38;;;-7.48;98.43
71059;BME280;70265;47.576;19.270;2024-01-11T04:39:13;99866.91;;;-7.49;98.57
71059;BME280;70265;47.576;19.270;2024-01-11T04:40:14;99864.34;;;-7.49;98.60
71059;BME280;70265;47.576;19.270;2024-01-11T04:41:27;99861.81;;;-7.49;98.72
71059;BME280;70265;47.576;19.270;2024-01-11T04:42:27;99853.28;;;-7.47;98.77
71059;BME280;70265;47.576;19.270;2024-01-11T04:43:31;99855.00;;;-7.49;98.94
71059;BME280;70265;47.576;19.270;2024-01-11T04:44:32;99856.72;;;-7.49;98.74
71059;BME280;70265;47.576;19.270;2024-01-11T04:45:38;99863.47;;;-7.48;98.73
71059;BME280;70265;47.576;19.270;2024-01-11T04:46:39;99850.72;;;-7.47;98.57
71059;BME280;70265;47.576;19.270;2024-01-11T04:47:40;99848.22;;;-7.50;98.77
71059;BME280;70265;47.576;19.270;2024-01-11T04:48:44;99854.13;;;-7.46;98.46
71059;BME280;70265;47.576;19.270;2024-01-11T04:49:45;99848.16;;;-7.44;98.41
71059;BME280;70265;47.576;19.270;2024-01-11T04:50:49;99844.72;;;-7.40;98.16
71059;BME280;70265;47.576;19.270;2024-01-11T04:51:50;99852.31;;;-7.35;98.20
71059;BME280;70265;47.576;19.270;2024-01-11T04:52:51;99851.47;;;-7.37;98.48
71059;BME280;70265;47.576;19.270;2024-01-11T04:53:54;99855.00;;;-7.50;98.29
71059;BME280;70265;47.576;19.270;2024-01-11T04:54:56;99851.75;;;-7.63;98.31
71059;BME280;70265;47.576;19.270;2024-01-11T04:56:02;99839.91;;;-7.67;98.55
71059;BME280;70265;47.576;19.270;2024-01-11T04:57:03;99851.78;;;-7.64;98.71
71059;BME280;70265;47.576;19.270;2024-01-11T04:58:07;99853.50;;;-7.66;99.11
71059;BME280;70265;47.576;19.270;2024-01-11T04:59:08;99856.88;;;-7.64;98.57
71059;BME280;70265;47.576;19.270;2024-01-11T05:00:13;99856.88;;;-7.64;98.51
71059;BME280;70265;47.576;19.270;2024-01-11T05:01:17;99848.41;;;-7.66;98.38
71059;BME280;70265;47.576;19.270;2024-01-11T05:02:22;99850.13;;;-7.70;98.62
71059;BME280;70265;47.576;19.270;2024-01-11T05:03:23;99853.56;;;-7.72;98.45
71059;BME280;70265;47.576;19.270;2024-01-11T05:04:23;99853.56;;;-7.72;98.65
71059;BME280;70265;47.576;19.270;2024-01-11T05:05:54;99848.50;;;-7.77;98.39
71059;BME280;70265;47.576;19.270;2024-01-11T05:07:17;99848.56;;;-7.82;98.66
71059;BME280;70265;47.576;19.270;2024-01-11T05:08:20;99850.25;;;-7.81;98.67
71059;BME280;70265;47.576;19.270;2024-01-11T05:09:21;99853.59;;;-7.79;98.92
71059;BME280;70265;47.576;19.270;2024-01-11T05:10:25;99846.88;;;-7.86;98.89
71059;BME280;70265;47.576;19.270;2024-01-11T05:11:26;99859.53;;;-7.78;98.88
71059;BME280;70265;47.576;19.270;2024-01-11T05:12:29;99850.22;;;-7.78;98.72
71059;BME280;70265;47.576;19.270;2024-01-11T05:13:30;99851.06;;;-7.76;98.74
71059;BME280;70265;47.576;19.270;2024-01-11T05:14:34;99856.97;;;-7.74;98.81
71059;BME280;70265;47.576;19.270;2024-01-11T05:15:36;99846.78;;;-7.75;98.99
71059;BME280;70265;47.576;19.270;2024-01-11T05:16:51;99842.53;;;-7.73;98.71
71059;BME280;70265;47.576;19.270;2024-01-11T05:17:52;99848.44;;;-7.69;98.81
71059;BME280;70265;47.576;19.270;2024-01-11T05:18:58;99843.31;;;-7.68;98.70
71059;BME280;70265;47.576;19.270;2024-01-11T05:19:59;99847.53;;;-7.62;98.77
71059;BME280;70265;47.576;19.270;2024-01-11T05:21:04;99841.59;;;-7.64;98.82
71059;BME280;70265;47.576;19.270;2024-01-11T05:22:05;99840.81;;;-7.69;98.79
71059;BME280;70265;47.576;19.270;2024-01-11T05:23:09;99845.16;;;-7.81;98.75
71059;BME280;70265;47.576;19.270;2024-01-11T05:24:10;99861.31;;;-7.85;98.79
71059;BME280;70265;47.576;19.270;2024-01-11T05:25:14;99856.22;;;-7.83;98.74
71059;BME280;70265;47.576;19.270;2024-01-11T05:26:16;99859.63;;;-7.86;98.80